createdAt,value
2017-03-26T00:00:14.791Z,10.57
2017-03-26T00:00:40.929Z,10.46
2017-03-26T00:01:07.027Z,10.51
2017-03-26T00:01:33.200Z,10.49
2017-03-26T00:01:59.252Z,10.56
2017-03-26T00:02:25.435Z,10.46
2017-03-26T00:02:51.533Z,10.54
2017-03-26T00:03:17.747Z,10.42
2017-03-26T00:03:43.877Z,10.41
2017-03-26T00:04:10.175Z,10.4
2017-03-26T00:04:36.304Z,10.4
2017-03-26T00:05:02.481Z,10.28
2017-03-26T00:05:28.648Z,10.26
2017-03-26T00:05:54.855Z,10.4
2017-03-26T00:06:20.992Z,10.37
2017-03-26T00:06:47.166Z,10.31
2017-03-26T00:07:13.336Z,10.28
2017-03-26T00:07:39.488Z,10.37
2017-03-26T00:08:05.627Z,10.37
2017-03-26T00:08:31.825Z,10.25
2017-03-26T00:08:57.957Z,10.26
2017-03-26T00:09:24.134Z,10.19
2017-03-26T00:09:50.331Z,10.1
2017-03-26T00:10:16.452Z,10.05
2017-03-26T00:10:42.551Z,10.07
2017-03-26T00:11:08.709Z,10.04
2017-03-26T00:11:34.862Z,10.09
2017-03-26T00:12:00.990Z,10.15
2017-03-26T00:12:27.073Z,10.15
2017-03-26T00:12:53.197Z,10.22
2017-03-26T00:13:19.401Z,10.15
2017-03-26T00:13:45.499Z,10.16
2017-03-26T00:14:11.604Z,10.19
2017-03-26T00:14:37.729Z,10.2
2017-03-26T00:15:03.879Z,10.23
2017-03-26T00:15:30.018Z,10.3
2017-03-26T00:15:56.184Z,10.31
2017-03-26T00:16:22.306Z,10.31
2017-03-26T00:16:48.439Z,10.25
2017-03-26T00:17:14.544Z,10.31
2017-03-26T00:17:40.651Z,10.2
2017-03-26T00:18:06.801Z,10.25
2017-03-26T00:18:32.924Z,10.25
2017-03-26T00:18:59.016Z,10.34
2017-03-26T00:19:25.147Z,10.26
2017-03-26T00:19:51.277Z,10.26
2017-03-26T00:20:17.448Z,10.25
2017-03-26T00:20:43.532Z,10.23
2017-03-26T00:21:09.645Z,10.31
2017-03-26T00:21:35.805Z,10.3
2017-03-26T00:22:01.945Z,10.26
2017-03-26T00:22:28.231Z,10.3
2017-03-26T00:22:54.375Z,10.31
2017-03-26T00:23:20.531Z,10.25
2017-03-26T00:23:46.719Z,10.26
2017-03-26T00:24:12.902Z,10.25
2017-03-26T00:24:39.044Z,10.28
2017-03-26T00:25:05.164Z,10.3
2017-03-26T00:25:31.346Z,10.31
2017-03-26T00:25:57.388Z,10.3
2017-03-26T00:26:23.564Z,10.26
2017-03-26T00:26:49.755Z,10.31
2017-03-26T00:27:15.868Z,10.28
2017-03-26T00:27:41.957Z,10.3
2017-03-26T00:28:08.203Z,10.22
2017-03-26T00:28:34.407Z,10.25
2017-03-26T00:29:00.616Z,10.35
2017-03-26T00:29:26.765Z,10.23
2017-03-26T00:29:52.917Z,10.31
2017-03-26T00:30:19.141Z,10.34
2017-03-26T00:30:45.270Z,10.41
2017-03-26T00:31:11.448Z,10.33
2017-03-26T00:31:37.612Z,10.33
2017-03-26T00:32:03.714Z,10.28
2017-03-26T00:32:29.831Z,10.38
2017-03-26T00:32:55.971Z,10.46
2017-03-26T00:33:22.156Z,10.35
2017-03-26T00:33:48.362Z,10.33
2017-03-26T00:34:14.497Z,10.41
2017-03-26T00:34:40.601Z,10.41
2017-03-26T00:35:06.809Z,10.44
2017-03-26T00:35:32.920Z,10.41
2017-03-26T00:35:59.038Z,10.4
2017-03-26T00:36:25.305Z,10.51
2017-03-26T00:36:51.435Z,10.49
2017-03-26T00:37:17.515Z,10.44
2017-03-26T00:37:43.659Z,10.46
2017-03-26T00:38:09.853Z,10.44
2017-03-26T00:38:35.981Z,10.42
2017-03-26T00:39:02.158Z,10.41
2017-03-26T00:39:28.294Z,10.44
2017-03-26T00:39:54.426Z,10.3
2017-03-26T00:40:20.632Z,10.25
2017-03-26T00:40:46.835Z,10.25
2017-03-26T00:41:12.930Z,10.31
2017-03-26T00:41:39.086Z,10.28
2017-03-26T00:42:05.208Z,10.28
2017-03-26T00:42:31.407Z,10.3
2017-03-26T00:42:57.539Z,10.3
2017-03-26T00:43:23.702Z,10.28
2017-03-26T00:43:49.875Z,10.16
2017-03-26T00:44:15.999Z,10.22
2017-03-26T00:44:42.123Z,10.22
2017-03-26T00:45:08.393Z,10.25
2017-03-26T00:45:34.517Z,10.25
2017-03-26T00:46:00.624Z,10.31
2017-03-26T00:46:26.796Z,10.25
2017-03-26T00:46:52.922Z,10.19
2017-03-26T00:47:19.123Z,10.19
2017-03-26T00:47:45.354Z,10.17
2017-03-26T00:48:11.592Z,10.17
2017-03-26T00:48:37.916Z,10.17
2017-03-26T00:49:04.023Z,10.13
2017-03-26T00:49:30.224Z,10.12
2017-03-26T00:49:56.414Z,10.04
2017-03-26T00:50:22.567Z,10.09
2017-03-26T00:50:48.695Z,10.1
2017-03-26T00:51:14.776Z,10.1
2017-03-26T00:51:40.857Z,10.1
2017-03-26T00:52:06.983Z,9.98
2017-03-26T00:52:33.088Z,10.07
2017-03-26T00:52:59.213Z,9.98
2017-03-26T00:53:25.342Z,9.95
2017-03-26T00:53:51.491Z,10.07
2017-03-26T00:54:17.616Z,9.97
2017-03-26T00:54:43.746Z,10.04
2017-03-26T00:55:09.850Z,10.04
2017-03-26T00:55:35.977Z,10.02
2017-03-26T00:56:02.079Z,10.07
2017-03-26T00:56:28.159Z,9.95
2017-03-26T00:56:54.240Z,9.97
2017-03-26T00:57:20.343Z,9.92
2017-03-26T00:57:46.495Z,9.98
2017-03-26T00:58:12.623Z,9.92
2017-03-26T00:58:38.750Z,9.91
2017-03-26T00:59:04.874Z,9.82
2017-03-26T00:59:30.976Z,9.82
2017-03-26T00:59:57.060Z,9.79
2017-03-26T01:00:23.161Z,9.83
2017-03-26T01:00:49.239Z,9.84
2017-03-26T01:01:15.322Z,9.92
2017-03-26T01:01:41.425Z,9.94
2017-03-26T01:02:07.531Z,9.94
2017-03-26T01:02:33.681Z,9.89
2017-03-26T01:02:59.808Z,9.79
2017-03-26T01:03:25.983Z,9.82
2017-03-26T01:03:52.137Z,9.77
2017-03-26T01:04:18.242Z,9.77
2017-03-26T01:04:44.324Z,9.84
2017-03-26T01:05:10.449Z,9.8
2017-03-26T01:05:36.573Z,9.83
2017-03-26T01:06:02.678Z,9.82
2017-03-26T01:06:28.759Z,9.84
2017-03-26T01:06:54.841Z,9.83
2017-03-26T01:07:20.991Z,9.83
2017-03-26T01:07:47.143Z,9.8
2017-03-26T01:08:13.247Z,9.91
2017-03-26T01:08:39.395Z,9.82
2017-03-26T01:09:05.501Z,9.92
2017-03-26T01:09:31.625Z,9.86
2017-03-26T01:09:57.730Z,9.95
2017-03-26T01:10:23.833Z,9.94
2017-03-26T01:10:49.910Z,9.83
2017-03-26T01:11:16.012Z,9.91
2017-03-26T01:11:42.116Z,9.94
2017-03-26T01:12:08.242Z,9.97
2017-03-26T01:12:34.318Z,9.99
2017-03-26T01:13:00.445Z,10.04
2017-03-26T01:13:26.572Z,9.98
2017-03-26T01:13:52.726Z,9.99
2017-03-26T01:14:18.855Z,9.95
2017-03-26T01:14:44.960Z,9.92
2017-03-26T01:15:11.065Z,9.89
2017-03-26T01:15:37.170Z,9.83
2017-03-26T01:16:03.276Z,9.92
2017-03-26T01:16:29.457Z,9.79
2017-03-26T01:16:55.540Z,9.87
2017-03-26T01:17:21.623Z,9.97
2017-03-26T01:17:47.773Z,9.84
2017-03-26T01:18:13.916Z,9.84
2017-03-26T01:18:40.063Z,9.84
2017-03-26T01:19:06.193Z,9.97
2017-03-26T01:19:32.340Z,9.86
2017-03-26T01:19:58.492Z,9.76
2017-03-26T01:20:24.641Z,9.68
2017-03-26T01:20:50.792Z,9.66
2017-03-26T01:21:16.898Z,9.68
2017-03-26T01:21:43.176Z,9.72
2017-03-26T01:22:09.284Z,9.77
2017-03-26T01:22:35.411Z,9.77
2017-03-26T01:23:01.516Z,9.92
2017-03-26T01:23:27.643Z,9.8
2017-03-26T01:23:53.819Z,9.73
2017-03-26T01:24:19.967Z,9.73
2017-03-26T01:24:46.119Z,9.72
2017-03-26T01:25:12.268Z,9.62
2017-03-26T01:25:38.375Z,9.62
2017-03-26T01:26:04.458Z,9.56
2017-03-26T01:26:30.562Z,9.48
2017-03-26T01:26:56.662Z,9.56
2017-03-26T01:27:22.746Z,9.54
2017-03-26T01:27:48.846Z,9.46
2017-03-26T01:28:14.994Z,9.51
2017-03-26T01:28:41.121Z,9.5
2017-03-26T01:29:07.248Z,9.54
2017-03-26T01:29:33.395Z,9.61
2017-03-26T01:29:59.525Z,9.62
2017-03-26T01:30:25.629Z,9.55
2017-03-26T01:30:51.712Z,9.62
2017-03-26T01:31:17.814Z,9.62
2017-03-26T01:31:43.893Z,9.64
2017-03-26T01:32:09.975Z,9.58
2017-03-26T01:32:36.102Z,9.51
2017-03-26T01:33:02.229Z,9.58
2017-03-26T01:33:28.332Z,9.66
2017-03-26T01:33:54.473Z,9.54
2017-03-26T01:34:20.600Z,9.64
2017-03-26T01:34:46.726Z,9.62
2017-03-26T01:35:12.858Z,9.56
2017-03-26T01:35:38.964Z,9.64
2017-03-26T01:36:05.067Z,9.62
2017-03-26T01:36:31.173Z,9.61
2017-03-26T01:36:57.302Z,9.47
2017-03-26T01:37:23.406Z,9.5
2017-03-26T01:37:49.556Z,9.55
2017-03-26T01:38:15.702Z,9.46
2017-03-26T01:38:41.834Z,9.55
2017-03-26T01:39:07.938Z,9.4
2017-03-26T01:39:34.087Z,9.41
2017-03-26T01:40:00.215Z,9.34
2017-03-26T01:40:26.298Z,9.26
2017-03-26T01:40:52.425Z,9.23
2017-03-26T01:41:18.508Z,9.14
2017-03-26T01:41:44.588Z,9.14
2017-03-26T01:42:10.665Z,9.11
2017-03-26T01:42:36.766Z,9.06
2017-03-26T01:43:02.890Z,9.03
2017-03-26T01:43:28.995Z,9.02
2017-03-26T01:43:55.144Z,9.02
2017-03-26T01:44:21.250Z,8.95
2017-03-26T01:44:47.384Z,8.99
2017-03-26T01:45:13.480Z,9
2017-03-26T01:45:39.559Z,8.85
2017-03-26T01:46:05.661Z,8.95
2017-03-26T01:46:31.743Z,8.91
2017-03-26T01:46:57.849Z,8.88
2017-03-26T01:47:23.974Z,8.81
2017-03-26T01:47:50.081Z,8.84
2017-03-26T01:48:16.253Z,8.82
2017-03-26T01:48:42.381Z,8.81
2017-03-26T01:49:08.532Z,8.84
2017-03-26T01:49:34.611Z,8.82
2017-03-26T01:50:00.763Z,8.84
2017-03-26T01:50:26.865Z,8.79
2017-03-26T01:50:52.966Z,8.88
2017-03-26T01:51:19.072Z,8.89
2017-03-26T01:51:45.175Z,8.85
2017-03-26T01:52:11.653Z,8.85
2017-03-26T01:52:37.758Z,8.88
2017-03-26T01:53:03.912Z,8.87
2017-03-26T01:53:29.996Z,8.85
2017-03-26T01:53:56.146Z,8.89
2017-03-26T01:54:22.273Z,8.85
2017-03-26T01:54:48.379Z,9.02
2017-03-26T01:55:14.505Z,8.92
2017-03-26T01:55:40.630Z,9
2017-03-26T01:56:06.710Z,9.03
2017-03-26T01:56:32.812Z,8.99
2017-03-26T01:56:58.894Z,8.92
2017-03-26T01:57:24.977Z,8.88
2017-03-26T01:57:51.147Z,9
2017-03-26T01:58:17.248Z,8.88
2017-03-26T01:58:43.421Z,8.91
2017-03-26T01:59:09.568Z,8.99
2017-03-26T01:59:35.694Z,8.87
2017-03-26T02:00:01.846Z,8.85
2017-03-26T02:00:27.951Z,8.82
2017-03-26T02:00:54.056Z,8.94
2017-03-26T02:01:20.139Z,8.95
2017-03-26T02:01:46.238Z,9.02
2017-03-26T02:02:12.341Z,8.95
2017-03-26T02:02:38.423Z,8.91
2017-03-26T02:03:04.572Z,8.88
2017-03-26T02:03:30.680Z,8.88
2017-03-26T02:03:56.812Z,8.84
2017-03-26T02:04:22.909Z,8.88
2017-03-26T02:04:49.033Z,8.82
2017-03-26T02:05:15.114Z,8.82
2017-03-26T02:05:41.218Z,8.94
2017-03-26T02:06:07.302Z,8.85
2017-03-26T02:06:33.404Z,8.85
2017-03-26T02:06:59.504Z,8.89
2017-03-26T02:07:25.587Z,8.76
2017-03-26T02:07:51.670Z,8.84
2017-03-26T02:08:17.798Z,8.88
2017-03-26T02:08:43.974Z,8.85
2017-03-26T02:09:10.149Z,8.81
2017-03-26T02:09:36.273Z,8.85
2017-03-26T02:10:02.378Z,8.74
2017-03-26T02:10:28.480Z,8.7
2017-03-26T02:10:54.559Z,8.7
2017-03-26T02:11:20.640Z,8.7
2017-03-26T02:11:46.721Z,8.74
2017-03-26T02:12:12.847Z,8.67
2017-03-26T02:12:39.003Z,8.69
2017-03-26T02:13:05.096Z,8.74
2017-03-26T02:13:31.199Z,8.64
2017-03-26T02:13:57.328Z,8.66
2017-03-26T02:14:23.500Z,8.66
2017-03-26T02:14:49.624Z,8.63
2017-03-26T02:15:15.726Z,8.64
2017-03-26T02:15:41.853Z,8.64
2017-03-26T02:16:07.961Z,8.69
2017-03-26T02:16:34.062Z,8.61
2017-03-26T02:17:00.166Z,8.6
2017-03-26T02:17:26.269Z,8.66
2017-03-26T02:17:52.396Z,8.6
2017-03-26T02:18:18.545Z,8.64
2017-03-26T02:18:44.740Z,8.61
2017-03-26T02:19:10.839Z,8.53
2017-03-26T02:19:36.944Z,8.52
2017-03-26T02:20:03.048Z,8.53
2017-03-26T02:20:29.129Z,8.52
2017-03-26T02:20:55.229Z,8.63
2017-03-26T02:21:21.385Z,8.63
2017-03-26T02:21:47.432Z,8.67
2017-03-26T02:22:13.513Z,8.69
2017-03-26T02:22:39.617Z,8.74
2017-03-26T02:23:05.744Z,8.7
2017-03-26T02:23:31.897Z,8.76
2017-03-26T02:23:58.069Z,8.85
2017-03-26T02:24:24.240Z,8.79
2017-03-26T02:24:50.364Z,8.82
2017-03-26T02:25:16.472Z,8.82
2017-03-26T02:25:42.576Z,8.82
2017-03-26T02:26:08.676Z,8.82
2017-03-26T02:26:34.753Z,8.92
2017-03-26T02:27:00.835Z,8.87
2017-03-26T02:27:26.919Z,8.85
2017-03-26T02:27:53.023Z,8.73
2017-03-26T02:28:19.099Z,8.78
2017-03-26T02:28:45.249Z,8.79
2017-03-26T02:29:11.378Z,8.81
2017-03-26T02:29:37.485Z,8.81
2017-03-26T02:30:03.610Z,8.76
2017-03-26T02:30:29.715Z,8.73
2017-03-26T02:30:55.844Z,8.87
2017-03-26T02:31:21.992Z,8.73
2017-03-26T02:31:48.073Z,8.85
2017-03-26T02:32:14.152Z,8.76
2017-03-26T02:32:40.256Z,8.79
2017-03-26T02:33:06.407Z,8.74
2017-03-26T02:33:32.490Z,8.71
2017-03-26T02:33:58.617Z,8.74
2017-03-26T02:34:24.765Z,8.74
2017-03-26T02:34:50.917Z,8.76
2017-03-26T02:35:17.021Z,8.79
2017-03-26T02:35:43.099Z,8.76
2017-03-26T02:36:09.199Z,8.81
2017-03-26T02:36:35.279Z,8.76
2017-03-26T02:37:01.382Z,8.76
2017-03-26T02:37:27.486Z,8.79
2017-03-26T02:37:53.638Z,8.79
2017-03-26T02:38:19.789Z,8.74
2017-03-26T02:38:45.959Z,8.84
2017-03-26T02:39:12.106Z,8.74
2017-03-26T02:39:38.301Z,8.79
2017-03-26T02:40:04.406Z,8.79
2017-03-26T02:40:30.490Z,8.76
2017-03-26T02:40:56.617Z,8.81
2017-03-26T02:41:22.697Z,8.74
2017-03-26T02:41:48.775Z,8.81
2017-03-26T02:42:14.901Z,8.74
2017-03-26T02:42:41.009Z,8.92
2017-03-26T02:43:07.160Z,8.78
2017-03-26T02:43:33.328Z,8.7
2017-03-26T02:43:59.474Z,8.66
2017-03-26T02:44:25.629Z,8.6
2017-03-26T02:44:51.732Z,8.7
2017-03-26T02:45:17.861Z,8.69
2017-03-26T02:45:43.938Z,8.74
2017-03-26T02:46:10.017Z,8.73
2017-03-26T02:46:36.146Z,8.76
2017-03-26T02:47:02.295Z,8.74
2017-03-26T02:47:28.372Z,8.71
2017-03-26T02:47:54.498Z,8.71
2017-03-26T02:48:20.603Z,8.71
2017-03-26T02:48:46.933Z,8.71
2017-03-26T02:49:13.038Z,8.71
2017-03-26T02:49:39.186Z,8.74
2017-03-26T02:50:05.289Z,8.71
2017-03-26T02:50:31.392Z,8.73
2017-03-26T02:50:57.476Z,8.81
2017-03-26T02:51:23.559Z,8.79
2017-03-26T02:51:49.690Z,8.74
2017-03-26T02:52:15.769Z,8.71
2017-03-26T02:52:41.919Z,8.6
2017-03-26T02:53:08.093Z,8.64
2017-03-26T02:53:34.244Z,8.58
2017-03-26T02:54:00.363Z,8.63
2017-03-26T02:54:26.467Z,8.67
2017-03-26T02:54:52.549Z,8.64
2017-03-26T02:55:18.651Z,8.58
2017-03-26T02:55:44.732Z,8.52
2017-03-26T02:56:10.813Z,8.53
2017-03-26T02:56:36.916Z,8.55
2017-03-26T02:57:03.023Z,8.49
2017-03-26T02:57:29.147Z,8.41
2017-03-26T02:57:55.296Z,8.42
2017-03-26T02:58:21.424Z,8.45
2017-03-26T02:58:47.574Z,8.44
2017-03-26T02:59:13.677Z,8.37
2017-03-26T02:59:39.810Z,8.41
2017-03-26T03:00:05.890Z,8.38
2017-03-26T03:00:32.018Z,8.38
2017-03-26T03:00:58.124Z,8.3
2017-03-26T03:01:24.229Z,8.3
2017-03-26T03:01:50.332Z,8.28
2017-03-26T03:02:16.411Z,8.24
2017-03-26T03:02:42.514Z,8.3
2017-03-26T03:03:08.622Z,8.37
2017-03-26T03:03:34.771Z,8.38
2017-03-26T03:04:00.922Z,8.31
2017-03-26T03:04:27.043Z,8.36
2017-03-26T03:04:53.194Z,8.38
2017-03-26T03:05:19.318Z,8.37
2017-03-26T03:05:45.397Z,8.38
2017-03-26T03:06:11.505Z,8.45
2017-03-26T03:06:37.588Z,8.36
2017-03-26T03:07:03.691Z,8.37
2017-03-26T03:07:29.817Z,8.44
2017-03-26T03:07:55.919Z,8.38
2017-03-26T03:08:22.021Z,8.42
2017-03-26T03:08:48.191Z,8.38
2017-03-26T03:09:14.317Z,8.37
2017-03-26T03:09:40.444Z,8.44
2017-03-26T03:10:06.595Z,8.45
2017-03-26T03:10:32.698Z,8.44
2017-03-26T03:10:58.798Z,8.45
2017-03-26T03:11:24.902Z,8.45
2017-03-26T03:11:51.007Z,8.42
2017-03-26T03:12:17.158Z,8.36
2017-03-26T03:12:43.310Z,8.41
2017-03-26T03:13:09.462Z,8.44
2017-03-26T03:13:35.613Z,8.46
2017-03-26T03:14:01.766Z,8.41
2017-03-26T03:14:27.890Z,8.33
2017-03-26T03:14:53.997Z,8.38
2017-03-26T03:15:20.153Z,8.41
2017-03-26T03:15:46.235Z,8.36
2017-03-26T03:16:12.317Z,8.41
2017-03-26T03:16:38.420Z,8.45
2017-03-26T03:17:04.499Z,8.44
2017-03-26T03:17:30.629Z,8.51
2017-03-26T03:17:56.779Z,8.51
2017-03-26T03:18:22.904Z,8.42
2017-03-26T03:18:49.032Z,8.51
2017-03-26T03:19:15.138Z,8.61
2017-03-26T03:19:41.289Z,8.58
2017-03-26T03:20:07.371Z,8.69
2017-03-26T03:20:33.477Z,8.64
2017-03-26T03:20:59.560Z,8.69
2017-03-26T03:21:25.681Z,8.71
2017-03-26T03:21:51.786Z,8.74
2017-03-26T03:22:17.868Z,8.78
2017-03-26T03:22:43.967Z,8.78
2017-03-26T03:23:10.092Z,8.81
2017-03-26T03:23:36.265Z,8.81
2017-03-26T03:24:02.411Z,8.78
2017-03-26T03:24:28.536Z,8.73
2017-03-26T03:24:54.621Z,8.7
2017-03-26T03:25:20.753Z,8.67
2017-03-26T03:25:46.857Z,8.76
2017-03-26T03:26:12.938Z,8.74
2017-03-26T03:26:39.041Z,8.7
2017-03-26T03:27:05.143Z,8.7
2017-03-26T03:27:31.246Z,8.82
2017-03-26T03:27:57.349Z,8.76
2017-03-26T03:28:23.478Z,8.67
2017-03-26T03:28:49.653Z,8.69
2017-03-26T03:29:15.784Z,8.6
2017-03-26T03:29:41.914Z,8.61
2017-03-26T03:30:08.065Z,8.61
2017-03-26T03:30:34.147Z,8.58
2017-03-26T03:31:00.226Z,8.51
2017-03-26T03:31:26.305Z,8.55
2017-03-26T03:31:52.431Z,8.52
2017-03-26T03:32:18.538Z,8.6
2017-03-26T03:32:44.666Z,8.56
2017-03-26T03:33:10.794Z,8.66
2017-03-26T03:33:36.899Z,8.7
2017-03-26T03:34:03.080Z,8.64
2017-03-26T03:34:29.231Z,8.6
2017-03-26T03:34:55.380Z,8.55
2017-03-26T03:35:21.483Z,8.6
2017-03-26T03:35:47.563Z,8.64
2017-03-26T03:36:13.664Z,8.49
2017-03-26T03:36:39.743Z,8.51
2017-03-26T03:37:05.827Z,8.56
2017-03-26T03:37:31.931Z,8.49
2017-03-26T03:37:58.083Z,8.51
2017-03-26T03:38:24.163Z,8.58
2017-03-26T03:38:50.334Z,8.64
2017-03-26T03:39:16.483Z,8.55
2017-03-26T03:39:42.585Z,8.61
2017-03-26T03:40:08.711Z,8.42
2017-03-26T03:40:34.795Z,8.51
2017-03-26T03:41:00.875Z,8.56
2017-03-26T03:41:26.954Z,8.53
2017-03-26T03:41:53.036Z,8.66
2017-03-26T03:42:19.142Z,8.61
2017-03-26T03:42:45.247Z,8.61
2017-03-26T03:43:11.396Z,8.64
2017-03-26T03:43:37.572Z,8.6
2017-03-26T03:44:03.724Z,8.63
2017-03-26T03:44:29.897Z,8.63
2017-03-26T03:44:56.003Z,8.61
2017-03-26T03:45:22.104Z,8.6
2017-03-26T03:45:48.183Z,8.6
2017-03-26T03:46:14.306Z,8.52
2017-03-26T03:46:40.411Z,8.58
2017-03-26T03:47:06.491Z,8.55
2017-03-26T03:47:32.591Z,8.61
2017-03-26T03:47:58.724Z,8.51
2017-03-26T03:48:24.822Z,8.58
2017-03-26T03:48:50.972Z,8.52
2017-03-26T03:49:17.099Z,8.55
2017-03-26T03:49:43.228Z,8.53
2017-03-26T03:50:09.355Z,8.61
2017-03-26T03:50:35.482Z,8.56
2017-03-26T03:51:01.610Z,8.52
2017-03-26T03:51:27.707Z,8.58
2017-03-26T03:51:53.791Z,8.53
2017-03-26T03:52:19.871Z,8.55
2017-03-26T03:52:46.022Z,8.56
2017-03-26T03:53:12.146Z,8.49
2017-03-26T03:53:38.297Z,8.56
2017-03-26T03:54:04.465Z,8.48
2017-03-26T03:54:30.612Z,8.44
2017-03-26T03:54:56.759Z,8.45
2017-03-26T03:55:22.840Z,8.38
2017-03-26T03:55:48.922Z,8.42
2017-03-26T03:56:15.027Z,8.37
2017-03-26T03:56:41.150Z,8.36
2017-03-26T03:57:07.252Z,8.37
2017-03-26T03:57:33.357Z,8.42
2017-03-26T03:57:59.508Z,8.45
2017-03-26T03:58:25.634Z,8.46
2017-03-26T03:58:51.809Z,8.48
2017-03-26T03:59:17.935Z,8.56
2017-03-26T03:59:44.064Z,8.58
2017-03-26T04:00:10.212Z,8.52
2017-03-26T04:00:36.317Z,8.58
2017-03-26T04:01:02.421Z,8.64
2017-03-26T04:01:28.509Z,8.67
2017-03-26T04:01:54.586Z,8.63
2017-03-26T04:02:20.709Z,8.66
2017-03-26T04:02:46.789Z,8.69
2017-03-26T04:03:13.215Z,8.6
2017-03-26T04:03:39.338Z,8.66
2017-03-26T04:04:05.465Z,8.61
2017-03-26T04:04:31.665Z,8.56
2017-03-26T04:04:57.792Z,8.56
2017-03-26T04:05:23.875Z,8.58
2017-03-26T04:05:49.980Z,8.6
2017-03-26T04:06:16.108Z,8.56
2017-03-26T04:06:42.188Z,8.6
2017-03-26T04:07:08.268Z,8.66
2017-03-26T04:07:34.396Z,8.55
2017-03-26T04:08:00.478Z,8.6
2017-03-26T04:08:26.606Z,8.63
2017-03-26T04:08:52.774Z,8.63
2017-03-26T04:09:18.879Z,8.66
2017-03-26T04:09:45.004Z,8.61
2017-03-26T04:10:11.108Z,8.69
2017-03-26T04:10:37.211Z,8.66
2017-03-26T04:11:03.294Z,8.73
2017-03-26T04:11:29.396Z,8.74
2017-03-26T04:11:55.521Z,8.76
2017-03-26T04:12:21.624Z,8.85
2017-03-26T04:12:47.750Z,8.85
2017-03-26T04:13:13.855Z,8.79
2017-03-26T04:13:39.960Z,8.78
2017-03-26T04:14:06.039Z,8.76
2017-03-26T04:14:32.167Z,8.84
2017-03-26T04:14:58.270Z,8.84
2017-03-26T04:15:24.373Z,8.81
2017-03-26T04:15:50.457Z,8.79
2017-03-26T04:16:16.586Z,8.82
2017-03-26T04:16:42.702Z,8.79
2017-03-26T04:17:08.784Z,8.79
2017-03-26T04:17:34.889Z,8.81
2017-03-26T04:18:00.991Z,8.89
2017-03-26T04:18:27.091Z,8.94
2017-03-26T04:18:53.215Z,8.89
2017-03-26T04:19:19.350Z,8.94
2017-03-26T04:19:45.450Z,8.92
2017-03-26T04:20:11.530Z,8.88
2017-03-26T04:20:37.631Z,9
2017-03-26T04:21:03.736Z,8.85
2017-03-26T04:21:29.860Z,8.87
2017-03-26T04:21:55.940Z,8.85
2017-03-26T04:22:22.043Z,8.87
2017-03-26T04:22:48.148Z,8.78
2017-03-26T04:23:14.319Z,8.78
2017-03-26T04:23:40.472Z,8.71
2017-03-26T04:24:06.595Z,8.7
2017-03-26T04:24:32.722Z,8.64
2017-03-26T04:24:58.849Z,8.71
2017-03-26T04:25:24.956Z,8.69
2017-03-26T04:25:51.060Z,8.71
2017-03-26T04:26:17.189Z,8.79
2017-03-26T04:26:43.292Z,8.73
2017-03-26T04:27:09.419Z,8.76
2017-03-26T04:27:35.499Z,8.79
2017-03-26T04:28:01.669Z,8.85
2017-03-26T04:28:27.800Z,8.82
2017-03-26T04:28:53.929Z,8.91
2017-03-26T04:29:20.034Z,8.85
2017-03-26T04:29:46.183Z,8.81
2017-03-26T04:30:12.311Z,8.84
2017-03-26T04:30:38.390Z,8.81
2017-03-26T04:31:04.469Z,8.87
2017-03-26T04:31:30.574Z,8.85
2017-03-26T04:31:56.680Z,8.87
2017-03-26T04:32:22.803Z,8.81
2017-03-26T04:32:48.930Z,8.88
2017-03-26T04:33:15.076Z,8.81
2017-03-26T04:33:41.592Z,8.84
2017-03-26T04:34:07.698Z,8.88
2017-03-26T04:34:33.824Z,8.89
2017-03-26T04:34:59.951Z,8.95
2017-03-26T04:35:26.077Z,8.99
2017-03-26T04:35:52.169Z,8.99
2017-03-26T04:36:18.263Z,8.94
2017-03-26T04:36:44.340Z,8.92
2017-03-26T04:37:10.444Z,8.95
2017-03-26T04:37:36.549Z,8.95
2017-03-26T04:38:02.672Z,8.91
2017-03-26T04:38:28.847Z,9.02
2017-03-26T04:38:55.020Z,8.99
2017-03-26T04:39:21.098Z,9.02
2017-03-26T04:39:47.247Z,8.94
2017-03-26T04:40:13.352Z,9.02
2017-03-26T04:40:39.432Z,8.88
2017-03-26T04:41:05.513Z,8.89
2017-03-26T04:41:31.615Z,8.99
2017-03-26T04:41:57.718Z,9.13
2017-03-26T04:42:23.845Z,9.08
2017-03-26T04:42:49.948Z,9.02
2017-03-26T04:43:16.099Z,9.1
2017-03-26T04:43:42.224Z,9.1
2017-03-26T04:44:08.351Z,9.18
2017-03-26T04:44:34.499Z,9.13
2017-03-26T04:45:00.578Z,9.23
2017-03-26T04:45:26.662Z,9.13
2017-03-26T04:45:52.741Z,9.14
2017-03-26T04:46:18.822Z,9.11
2017-03-26T04:46:44.924Z,9.08
2017-03-26T04:47:11.049Z,9.18
2017-03-26T04:47:37.179Z,9.21
2017-03-26T04:48:03.306Z,9.18
2017-03-26T04:48:29.456Z,9.14
2017-03-26T04:48:55.556Z,9.1
2017-03-26T04:49:21.704Z,9.18
2017-03-26T04:49:47.827Z,9.19
2017-03-26T04:50:13.955Z,9.18
2017-03-26T04:50:40.060Z,9.23
2017-03-26T04:51:06.141Z,9.16
2017-03-26T04:51:32.269Z,9.21
2017-03-26T04:51:58.367Z,9.22
2017-03-26T04:52:24.494Z,9.14
2017-03-26T04:52:50.601Z,9.1
2017-03-26T04:53:16.751Z,9.03
2017-03-26T04:53:42.881Z,9.04
2017-03-26T04:54:08.982Z,9
2017-03-26T04:54:35.083Z,8.92
2017-03-26T04:55:01.210Z,8.99
2017-03-26T04:55:27.314Z,9
2017-03-26T04:55:53.421Z,9.02
2017-03-26T04:56:19.547Z,8.99
2017-03-26T04:56:45.652Z,8.99
2017-03-26T04:57:11.731Z,9.08
2017-03-26T04:57:37.881Z,9
2017-03-26T04:58:04.072Z,9.04
2017-03-26T04:58:30.200Z,9.16
2017-03-26T04:58:56.326Z,9.16
2017-03-26T04:59:22.452Z,9.16
2017-03-26T04:59:48.579Z,9.04
2017-03-26T05:00:14.658Z,9
2017-03-26T05:00:40.759Z,9.1
2017-03-26T05:01:06.842Z,9.03
2017-03-26T05:01:32.922Z,9.03
2017-03-26T05:01:59.027Z,9.06
2017-03-26T05:02:25.105Z,9.02
2017-03-26T05:02:51.211Z,9.02
2017-03-26T05:03:17.316Z,9.02
2017-03-26T05:03:43.445Z,9
2017-03-26T05:04:09.596Z,8.91
2017-03-26T05:04:35.724Z,8.99
2017-03-26T05:05:01.851Z,8.89
2017-03-26T05:05:27.951Z,8.87
2017-03-26T05:05:54.037Z,8.97
2017-03-26T05:06:20.184Z,9
2017-03-26T05:06:46.266Z,9.03
2017-03-26T05:07:12.367Z,8.87
2017-03-26T05:07:38.468Z,9.03
2017-03-26T05:08:04.618Z,8.97
2017-03-26T05:08:30.720Z,8.99
2017-03-26T05:08:56.875Z,9.02
2017-03-26T05:09:22.998Z,9.04
2017-03-26T05:09:49.105Z,9.02
2017-03-26T05:10:15.231Z,9.03
2017-03-26T05:10:41.333Z,9.03
2017-03-26T05:11:07.458Z,8.95
2017-03-26T05:11:33.540Z,8.99
2017-03-26T05:11:59.641Z,8.94
2017-03-26T05:12:25.768Z,8.87
2017-03-26T05:12:51.876Z,8.87
2017-03-26T05:13:18.027Z,8.89
2017-03-26T05:13:44.150Z,8.95
2017-03-26T05:14:10.327Z,8.89
2017-03-26T05:14:36.451Z,8.85
2017-03-26T05:15:02.575Z,8.91
2017-03-26T05:15:28.657Z,8.85
2017-03-26T05:15:54.738Z,8.85
2017-03-26T05:16:20.819Z,8.88
2017-03-26T05:16:46.902Z,8.99
2017-03-26T05:17:12.986Z,8.95
2017-03-26T05:17:39.110Z,8.89
2017-03-26T05:18:05.263Z,8.87
2017-03-26T05:18:31.411Z,8.91
2017-03-26T05:18:57.537Z,8.89
2017-03-26T05:19:23.644Z,8.89
2017-03-26T05:19:49.795Z,8.85
2017-03-26T05:20:15.902Z,8.87
2017-03-26T05:20:41.984Z,8.87
2017-03-26T05:21:08.083Z,8.88
2017-03-26T05:21:34.166Z,8.85
2017-03-26T05:22:00.293Z,8.87
2017-03-26T05:22:26.397Z,8.95
2017-03-26T05:22:52.546Z,8.95
2017-03-26T05:23:18.648Z,8.95
2017-03-26T05:23:44.728Z,9.06
2017-03-26T05:24:10.879Z,8.89
2017-03-26T05:24:36.983Z,8.87
2017-03-26T05:25:03.113Z,8.89
2017-03-26T05:25:29.196Z,8.92
2017-03-26T05:25:55.278Z,8.87
2017-03-26T05:26:21.357Z,8.87
2017-03-26T05:26:47.439Z,8.97
2017-03-26T05:27:13.543Z,8.99
2017-03-26T05:27:39.650Z,8.89
2017-03-26T05:28:05.805Z,8.84
2017-03-26T05:28:31.952Z,8.81
2017-03-26T05:28:58.126Z,8.78
2017-03-26T05:29:24.276Z,8.84
2017-03-26T05:29:50.376Z,8.81
2017-03-26T05:30:16.525Z,8.76
2017-03-26T05:30:42.649Z,8.71
2017-03-26T05:31:08.774Z,8.74
2017-03-26T05:31:34.877Z,8.73
2017-03-26T05:32:00.983Z,8.66
2017-03-26T05:32:27.088Z,8.76
2017-03-26T05:32:53.194Z,8.78
2017-03-26T05:33:19.345Z,8.84
2017-03-26T05:33:45.514Z,8.71
2017-03-26T05:34:11.594Z,8.78
2017-03-26T05:34:37.721Z,8.81
2017-03-26T05:35:03.826Z,8.73
2017-03-26T05:35:29.932Z,8.78
2017-03-26T05:35:56.014Z,8.82
2017-03-26T05:36:22.137Z,8.78
2017-03-26T05:36:48.239Z,8.73
2017-03-26T05:37:14.344Z,8.78
2017-03-26T05:37:40.496Z,8.84
2017-03-26T05:38:06.624Z,8.76
2017-03-26T05:38:32.727Z,8.79
2017-03-26T05:38:58.855Z,8.84
2017-03-26T05:39:25.002Z,8.76
2017-03-26T05:39:51.129Z,8.84
2017-03-26T05:40:17.257Z,8.78
2017-03-26T05:40:43.359Z,8.71
2017-03-26T05:41:09.529Z,8.79
2017-03-26T05:41:35.635Z,8.79
2017-03-26T05:42:01.718Z,8.78
2017-03-26T05:42:27.800Z,8.82
2017-03-26T05:42:53.945Z,8.79
2017-03-26T05:43:20.114Z,8.81
2017-03-26T05:43:46.242Z,8.76
2017-03-26T05:44:12.375Z,8.73
2017-03-26T05:44:38.499Z,8.76
2017-03-26T05:45:04.650Z,8.84
2017-03-26T05:45:30.754Z,8.85
2017-03-26T05:45:56.834Z,8.88
2017-03-26T05:46:22.937Z,8.87
2017-03-26T05:46:49.017Z,8.89
2017-03-26T05:47:15.099Z,8.87